Port Star — 3EAS6 — position and weather

sailwx.info

Track history (hours):
 
Tides and Currents Weather Stations Pressure Air Temp Water Temp Dewpoint Dewpoint Depression Visibility Wind Speed Wind Dir Waves Ship Positions

Port Star

Last reported at 2015-Aug-04 20:07 UTC. Time now 2015-Sep-02 23:50 UTC.
Position S 31°38' E 031°25'.
Warning: this ship's position is 29 days out of date.

Length 175.5 m; beam 29.4 m.

Type: Ship. MMSI: 356105000.

Date/timePositionNaut miles runAvg speedWind from/ knotsBaromVisibWave heightAir tempDewpointWater temp
2015-Aug-04 20:07S 31°38' E 031°25'1514.4
2015-Aug-04 19:04S 31°32' E 031°41'815.0
2015-Aug-04 18:31S 31°28' E 031°49'1415.0
2015-Aug-04 17:33S 31°22' E 032°05'1514.6
2015-Aug-04 16:33S 31°16' E 032°20'1414.0
2015-Aug-04 15:33S 31°10' E 032°35'1313.2
2015-Aug-04 14:33S 31°04' E 032°49'2412.1
2015-Aug-04 12:33S 30°50' E 033°12'1211.8
2015-Aug-04 11:33S 30°43' E 033°23'  
Track history (hours):
 
Tides and Currents Weather Stations Pressure Air Temp Water Temp Dewpoint Dewpoint Depression Visibility Wind Speed Wind Dir Waves Ship Positions

Port Star

Last reported at 2015-Aug-04 20:07 UTC. Time now 2015-Sep-02 23:50 UTC.
Position S 31°38' E 031°25'.
Warning: this ship's position is 29 days out of date.

Length 175.5 m; beam 29.4 m.

Type: Ship. MMSI: 356105000.

Date/timePositionNaut miles runAvg speedWind from/ knotsBaromVisibWave heightAir tempDewpointWater temp
2015-Aug-04 20:07S 31°38' E 031°25'1514.4
2015-Aug-04 19:04S 31°32' E 031°41'815.0
2015-Aug-04 18:31S 31°28' E 031°49'1415.0
2015-Aug-04 17:33S 31°22' E 032°05'1514.6
2015-Aug-04 16:33S 31°16' E 032°20'1414.0
2015-Aug-04 15:33S 31°10' E 032°35'1313.2
2015-Aug-04 14:33S 31°04' E 032°49'2412.1
2015-Aug-04 12:33S 30°50' E 033°12'1211.8
2015-Aug-04 11:33S 30°43' E 033°23'  

Dump ship's entire track history